Terminal Aerodrome Forecast
Issued by NWS Shreveport, LA

Home | Current Version | Previous Version | Text Only | Print | Product List | Glossary On
Versions: 1 2 3 4 5 6 7 8 9 10 11 12 13 14 15 16 17 18 19 20 21 22 23 24 25 26 27 28 29 30 31 32 33 34 35 36 37 38 39
000
FTUS44 KSHV 241441 AAC
TAFSHV
TAF AMD
KSHV 241441Z 2415/2512 16008KT P6SM VCSH BKN015 OVC050
     FM241700 18018G26KT P6SM VCTS BKN040CB
      TEMPO 2422/2501 VRB20G40KT 1SM +TSRA BR OVC010CB
     FM250200 36007KT P6SM BKN150
      TEMPO 2502/2505 28012KT BKN060=

USA.gov is the U.S. government's official web portal to all federal, state and local government web resources and services.